createdAt,value
2023-04-22T00:00:24.896Z,15.48
2023-04-22T00:02:52.152Z,15.54
2023-04-22T00:05:20.650Z,15.57
2023-04-22T00:07:48.537Z,15.52
2023-04-22T00:10:15.737Z,15.48
2023-04-22T00:12:42.935Z,15.51
2023-04-22T00:15:11.194Z,15.42
2023-04-22T00:17:40.494Z,15.47
2023-04-22T00:20:09.198Z,15.52
2023-04-22T00:22:36.521Z,15.45
2023-04-22T00:25:04.056Z,15.38
2023-04-22T00:27:31.196Z,15.37
2023-04-22T00:29:58.297Z,15.31
2023-04-22T00:32:25.454Z,15.29
2023-04-22T00:34:53.995Z,15.26
2023-04-22T00:37:21.193Z,15.23
2023-04-22T00:39:48.393Z,15.22
2023-04-22T00:42:16.783Z,15.26
2023-04-22T00:44:47.324Z,15.26
2023-04-22T00:47:14.985Z,15.18
2023-04-22T00:49:43.286Z,15.13
2023-04-22T00:52:11.812Z,15.07
2023-04-22T00:54:39.305Z,15.02
2023-04-22T00:57:06.598Z,15.05
2023-04-22T00:59:33.909Z,15.04
2023-04-22T01:02:01.888Z,15.14
2023-04-22T01:04:30.594Z,15.15
2023-04-22T01:06:57.890Z,15.06
2023-04-22T01:09:26.517Z,15.09
2023-04-22T01:11:53.796Z,15.13
2023-04-22T01:14:20.940Z,15.07
2023-04-22T01:16:49.063Z,15.08
2023-04-22T01:19:16.766Z,15.11
2023-04-22T01:21:44.717Z,15.12
2023-04-22T01:24:13.816Z,15.03
2023-04-22T01:26:40.980Z,15.03
2023-04-22T01:29:08.158Z,15.04
2023-04-22T01:31:35.564Z,15.07
2023-04-22T01:34:02.945Z,15.04
2023-04-22T01:36:30.203Z,15.02
2023-04-22T01:38:57.495Z,15.06
2023-04-22T01:41:26.456Z,15.03
2023-04-22T01:43:54.275Z,15.06
2023-04-22T01:46:21.502Z,15.03
2023-04-22T01:48:48.720Z,15.02
2023-04-22T01:51:16.336Z,14.99
2023-04-22T01:53:44.001Z,15.01
2023-04-22T01:56:11.162Z,15.04
2023-04-22T01:58:40.901Z,16.64
2023-04-22T02:01:10.731Z,17.11
2023-04-22T02:03:38.462Z,17.47
2023-04-22T02:06:06.184Z,17.63
2023-04-22T02:08:33.581Z,17.86
2023-04-22T02:11:00.730Z,18.19
2023-04-22T02:13:35.357Z,18.22
2023-04-22T02:16:05.238Z,18.53
2023-04-22T02:18:33.136Z,18.50
2023-04-22T02:21:00.742Z,18.67
2023-04-22T02:23:28.536Z,18.87
2023-04-22T02:25:56.495Z,18.76
2023-04-22T02:28:23.682Z,18.88
2023-04-22T02:30:50.855Z,18.88
2023-04-22T02:33:19.520Z,18.96
2023-04-22T02:35:46.739Z,18.97
2023-04-22T02:38:13.875Z,19.04
2023-04-22T02:40:41.055Z,19.01
2023-04-22T02:43:08.189Z,18.80
2023-04-22T02:45:35.335Z,18.83
2023-04-22T02:48:02.418Z,18.95
2023-04-22T02:50:30.975Z,18.96
2023-04-22T02:52:58.155Z,19.02
2023-04-22T02:55:25.307Z,18.92
2023-04-22T02:57:52.718Z,19.00
2023-04-22T03:00:20.025Z,19.04
2023-04-22T03:02:47.451Z,18.87
2023-04-22T03:05:14.884Z,18.92
2023-04-22T03:07:43.523Z,18.79
2023-04-22T03:10:11.010Z,18.83
2023-04-22T03:12:38.310Z,18.87
2023-04-22T03:15:06.761Z,18.98
2023-04-22T03:17:33.921Z,18.92
2023-04-22T03:20:01.143Z,18.91
2023-04-22T03:22:28.304Z,18.63
2023-04-22T03:24:56.887Z,18.64
2023-04-22T03:27:24.152Z,18.64
2023-04-22T03:29:51.284Z,18.69
2023-04-22T03:32:18.471Z,18.63
2023-04-22T03:34:45.736Z,18.62
2023-04-22T03:37:12.845Z,18.55
2023-04-22T03:39:40.292Z,18.49
2023-04-22T03:42:10.825Z,18.43
2023-04-22T03:44:37.944Z,18.43
2023-04-22T03:47:05.138Z,18.51
2023-04-22T03:49:32.768Z,18.50
2023-04-22T03:51:59.881Z,18.47
2023-04-22T03:54:27.379Z,18.46
2023-04-22T03:56:54.593Z,18.52
2023-04-22T03:59:23.188Z,18.50
2023-04-22T04:01:52.408Z,18.39
2023-04-22T04:04:19.753Z,18.45
2023-04-22T04:06:47.110Z,18.50
2023-04-22T04:09:14.198Z,18.45
2023-04-22T04:11:41.323Z,18.52
2023-04-22T04:14:08.576Z,18.45
2023-04-22T04:16:37.163Z,18.54
2023-04-22T04:19:04.398Z,18.47
2023-04-22T04:21:31.664Z,18.43
2023-04-22T04:23:58.839Z,18.43
2023-04-22T04:26:25.967Z,18.33
2023-04-22T04:28:53.069Z,18.46
2023-04-22T04:31:20.232Z,18.44
2023-04-22T04:33:48.880Z,18.48
2023-04-22T04:36:16.302Z,18.34
2023-04-22T04:38:43.436Z,18.41
2023-04-22T04:41:10.589Z,18.31
2023-04-22T04:43:37.833Z,18.33
2023-04-22T04:46:05.239Z,18.31
2023-04-22T04:48:32.493Z,18.42
2023-04-22T04:51:01.064Z,18.46
2023-04-22T04:53:28.182Z,18.42
2023-04-22T04:55:55.288Z,18.38
2023-04-22T04:58:22.487Z,18.39
2023-04-22T05:00:49.780Z,18.52
2023-04-22T05:03:17.228Z,18.49
2023-04-22T05:05:44.683Z,18.54
2023-04-22T05:08:13.347Z,18.45
2023-04-22T05:10:40.544Z,18.44
2023-04-22T05:13:07.709Z,18.51
2023-04-22T05:15:35.205Z,18.55
2023-04-22T05:18:02.541Z,18.43
2023-04-22T05:20:29.832Z,18.46
2023-04-22T05:22:57.089Z,18.45
2023-04-22T05:25:25.733Z,18.47
2023-04-22T05:27:52.927Z,18.58
2023-04-22T05:30:20.086Z,18.54
2023-04-22T05:32:47.229Z,18.56
2023-04-22T05:35:14.441Z,18.61
2023-04-22T05:37:41.598Z,18.61
2023-04-22T05:40:10.006Z,18.64
2023-04-22T05:42:38.807Z,18.67
2023-04-22T05:45:07.346Z,18.82
2023-04-22T05:47:34.603Z,18.86
2023-04-22T05:50:01.808Z,18.74
2023-04-22T05:52:29.027Z,18.81
2023-04-22T05:54:56.384Z,18.71
2023-04-22T05:57:23.683Z,18.56
2023-04-22T05:59:52.204Z,18.73
2023-04-22T06:02:19.397Z,18.65
2023-04-22T06:04:46.890Z,18.62
2023-04-22T06:07:14.392Z,18.66
2023-04-22T06:09:41.950Z,18.68
2023-04-22T06:12:09.426Z,18.83
2023-04-22T06:14:36.563Z,18.84
2023-04-22T06:17:05.277Z,18.79
2023-04-22T06:19:32.489Z,18.98
2023-04-22T06:21:59.663Z,19.01
2023-04-22T06:24:26.886Z,19.09
2023-04-22T06:26:54.107Z,19.18
2023-04-22T06:29:21.408Z,19.14
2023-04-22T06:31:48.700Z,19.17
2023-04-22T06:34:17.386Z,19.20
2023-04-22T06:36:44.571Z,19.17
2023-04-22T06:39:11.722Z,19.32
2023-04-22T06:41:40.918Z,19.40
2023-04-22T06:44:09.288Z,19.43
2023-04-22T06:46:36.392Z,19.41
2023-04-22T06:49:03.573Z,19.38
2023-04-22T06:51:32.073Z,19.39
2023-04-22T06:53:59.235Z,19.59
2023-04-22T06:56:26.552Z,19.60
2023-04-22T06:58:53.760Z,19.57
2023-04-22T07:01:20.938Z,19.80
2023-04-22T07:03:48.226Z,19.73
2023-04-22T07:06:15.621Z,19.68
2023-04-22T07:08:44.240Z,19.51
2023-04-22T07:11:13.176Z,19.62
2023-04-22T07:13:41.641Z,19.52
2023-04-22T07:16:08.829Z,19.60
2023-04-22T07:18:36.218Z,19.64
2023-04-22T07:21:03.330Z,19.56
2023-04-22T07:23:30.554Z,19.65
2023-04-22T07:25:59.248Z,19.51
2023-04-22T07:28:26.332Z,19.49
2023-04-22T07:30:54.438Z,19.48
2023-04-22T07:33:21.514Z,19.50
2023-04-22T07:35:49.281Z,19.48
2023-04-22T07:38:16.579Z,19.44
2023-04-22T07:40:43.713Z,19.40
2023-04-22T07:43:12.374Z,19.39
2023-04-22T07:45:39.718Z,19.41
2023-04-22T07:48:07.134Z,19.53
2023-04-22T07:50:34.723Z,19.52
2023-04-22T07:53:02.713Z,19.81
2023-04-22T07:55:29.942Z,19.87
2023-04-22T07:57:57.096Z,20.03
2023-04-22T08:00:25.781Z,20.34
2023-04-22T08:02:53.253Z,20.79
2023-04-22T08:05:20.568Z,20.94
2023-04-22T08:07:47.764Z,21.07
2023-04-22T08:10:14.961Z,21.11
2023-04-22T08:12:42.209Z,21.21
2023-04-22T08:15:10.305Z,21.21
2023-04-22T08:17:39.117Z,21.27
2023-04-22T08:20:08.303Z,21.58
2023-04-22T08:22:35.571Z,22.01
2023-04-22T08:25:03.588Z,22.43
2023-04-22T08:27:30.744Z,22.48
2023-04-22T08:29:57.964Z,22.68
2023-04-22T08:32:25.225Z,22.74
2023-04-22T08:34:57.556Z,22.93
2023-04-22T08:37:29.703Z,22.87
2023-04-22T08:39:56.821Z,22.66
2023-04-22T08:42:24.241Z,22.38
2023-04-22T08:44:53.168Z,22.14
2023-04-22T08:47:22.085Z,21.77
2023-04-22T08:49:51.777Z,21.68
2023-04-22T08:52:20.489Z,21.57
2023-04-22T08:54:47.611Z,21.40
2023-04-22T08:57:15.870Z,21.26
2023-04-22T08:59:46.853Z,20.91
2023-04-22T09:02:19.622Z,20.79
2023-04-22T09:04:49.695Z,20.52
2023-04-22T09:07:24.834Z,20.43
2023-04-22T09:09:53.193Z,20.26
2023-04-22T09:12:20.516Z,20.20
2023-04-22T09:14:47.716Z,20.14
2023-04-22T09:17:16.617Z,20.21
2023-04-22T09:19:43.877Z,19.84
2023-04-22T09:22:12.222Z,19.65
2023-04-22T09:24:43.378Z,19.26
2023-04-22T09:27:11.003Z,18.98
2023-04-22T09:29:38.445Z,18.79
2023-04-22T09:32:11.971Z,18.62
2023-04-22T09:34:49.946Z,18.32
2023-04-22T09:37:19.704Z,18.25
2023-04-22T09:39:50.257Z,18.26
2023-04-22T09:42:17.600Z,18.51
2023-04-22T09:44:45.995Z,18.60
2023-04-22T09:47:13.299Z,18.88
2023-04-22T09:49:40.663Z,18.64
2023-04-22T09:52:08.052Z,18.91
2023-04-22T09:54:37.737Z,19.01
2023-04-22T09:57:11.156Z,19.03
2023-04-22T09:59:38.552Z,19.16
2023-04-22T10:02:05.944Z,19.20
2023-04-22T10:04:33.215Z,19.22
2023-04-22T10:07:00.484Z,19.29
2023-04-22T10:09:27.672Z,19.02
2023-04-22T10:11:57.052Z,19.00
2023-04-22T10:14:26.953Z,18.55
2023-04-22T10:16:59.156Z,18.78
2023-04-22T10:19:27.686Z,18.93
2023-04-22T10:21:58.627Z,19.23
2023-04-22T10:24:28.500Z,19.15
2023-04-22T10:26:57.768Z,18.81
2023-04-22T10:29:28.310Z,18.74
2023-04-22T10:32:03.825Z,18.81
2023-04-22T10:34:31.591Z,18.75
2023-04-22T10:37:01.786Z,18.52
2023-04-22T10:39:29.752Z,18.68
2023-04-22T10:42:09.651Z,18.49
2023-04-22T10:44:49.678Z,19.07
2023-04-22T10:47:28.042Z,18.93
2023-04-22T10:50:31.584Z,18.78
2023-04-22T10:53:00.429Z,18.80
2023-04-22T10:55:50.910Z,18.82
2023-04-22T10:58:20.403Z,18.85
2023-04-22T11:00:53.641Z,18.70
2023-04-22T11:03:28.277Z,18.98
2023-04-22T11:06:22.462Z,19.25
2023-04-22T11:09:06.773Z,19.46
2023-04-22T11:11:34.232Z,19.55
2023-04-22T11:14:02.231Z,19.68
2023-04-22T11:16:31.166Z,19.65
2023-04-22T11:18:59.520Z,19.76
2023-04-22T11:21:27.171Z,19.76
2023-04-22T11:23:54.372Z,19.76
2023-04-22T11:26:34.218Z,19.76
2023-04-22T11:29:01.416Z,19.78
2023-04-22T11:31:30.197Z,19.78
2023-04-22T11:33:59.334Z,19.68
2023-04-22T11:36:27.812Z,19.62
2023-04-22T11:38:55.240Z,19.57
2023-04-22T11:41:22.331Z,19.50
2023-04-22T11:43:49.850Z,19.42
2023-04-22T11:46:17.207Z,19.35
2023-04-22T11:48:45.878Z,19.28
2023-04-22T11:51:13.279Z,19.20
2023-04-22T11:53:51.494Z,19.02
2023-04-22T11:56:18.683Z,18.62
2023-04-22T11:58:47.672Z,18.46
2023-04-22T12:01:14.794Z,18.05
2023-04-22T12:03:42.931Z,17.85
2023-04-22T12:06:11.936Z,17.96
2023-04-22T12:08:40.412Z,18.28
2023-04-22T12:11:09.088Z,18.50
2023-04-22T12:13:42.714Z,18.80
2023-04-22T12:16:12.502Z,18.90
2023-04-22T12:18:41.439Z,19.21
2023-04-22T12:21:10.169Z,19.31
2023-04-22T12:23:43.505Z,19.35
2023-04-22T12:26:11.180Z,19.44
2023-04-22T12:28:39.682Z,19.58
2023-04-22T12:31:07.741Z,19.64
2023-04-22T12:33:35.384Z,19.73
2023-04-22T12:36:03.624Z,19.85
2023-04-22T12:38:30.727Z,19.87
2023-04-22T12:40:59.846Z,20.01
2023-04-22T12:43:27.167Z,20.16
2023-04-22T12:45:54.487Z,20.18
2023-04-22T12:48:21.633Z,20.16
2023-04-22T12:50:48.882Z,20.16
2023-04-22T12:53:16.647Z,20.17
2023-04-22T12:55:45.991Z,20.09
2023-04-22T12:58:15.164Z,20.22
2023-04-22T13:00:42.389Z,20.30
2023-04-22T13:03:09.662Z,20.66
2023-04-22T13:05:37.790Z,20.95
2023-04-22T13:08:07.489Z,21.10
2023-04-22T13:10:36.143Z,21.12
2023-04-22T13:13:15.814Z,21.34
2023-04-22T13:15:45.200Z,21.13
2023-04-22T13:18:12.482Z,21.41
2023-04-22T13:20:39.721Z,21.44
2023-04-22T13:23:06.906Z,21.44
2023-04-22T13:25:34.162Z,21.32
2023-04-22T13:28:01.283Z,21.07
2023-04-22T13:30:28.405Z,20.92
2023-04-22T13:32:57.235Z,20.88
2023-04-22T13:35:24.397Z,20.80
2023-04-22T13:37:51.561Z,20.81
2023-04-22T13:40:18.714Z,20.84
2023-04-22T13:42:45.903Z,20.87
2023-04-22T13:45:13.005Z,20.88
2023-04-22T13:47:40.157Z,20.95
2023-04-22T13:50:09.952Z,21.00
2023-04-22T13:52:37.320Z,21.04
2023-04-22T13:55:05.447Z,20.99
2023-04-22T13:57:32.615Z,21.04
2023-04-22T14:00:00.207Z,21.13
2023-04-22T14:02:27.682Z,21.62
2023-04-22T14:04:54.864Z,21.98
2023-04-22T14:07:24.151Z,22.18
2023-04-22T14:09:51.275Z,22.26
2023-04-22T14:12:18.478Z,22.42
2023-04-22T14:14:45.607Z,22.55
2023-04-22T14:17:12.807Z,22.81
2023-04-22T14:19:40.084Z,23.00
2023-04-22T14:22:07.429Z,23.10
2023-04-22T14:24:36.188Z,23.16
2023-04-22T14:27:03.435Z,23.21
2023-04-22T14:29:30.771Z,23.29
2023-04-22T14:31:58.468Z,23.27
2023-04-22T14:34:25.908Z,23.16
2023-04-22T14:36:53.017Z,22.75
2023-04-22T14:39:20.289Z,22.54
2023-04-22T14:41:49.065Z,22.28
2023-04-22T14:44:16.379Z,22.10
2023-04-22T14:46:43.628Z,21.91
2023-04-22T14:49:10.959Z,21.79
2023-04-22T14:51:38.153Z,21.58
2023-04-22T14:54:06.305Z,21.27
2023-04-22T14:56:33.417Z,20.33
2023-04-22T14:59:01.989Z,19.90
2023-04-22T15:01:29.305Z,20.14
2023-04-22T15:03:56.705Z,20.05
2023-04-22T15:06:24.020Z,19.92
2023-04-22T15:08:51.206Z,19.80
2023-04-22T15:11:18.413Z,19.68
2023-04-22T15:13:45.846Z,19.62
2023-04-22T15:16:14.437Z,19.63
2023-04-22T15:18:41.926Z,19.63
2023-04-22T15:21:09.227Z,19.65
2023-04-22T15:23:36.632Z,19.71
2023-04-22T15:26:03.821Z,19.66
2023-04-22T15:28:30.998Z,19.70
2023-04-22T15:30:58.189Z,19.62
2023-04-22T15:33:26.769Z,19.56
2023-04-22T15:35:53.984Z,19.64
2023-04-22T15:38:21.333Z,19.78
2023-04-22T15:40:48.463Z,19.98
2023-04-22T15:43:15.763Z,20.35
2023-04-22T15:45:43.164Z,20.66
2023-04-22T15:48:10.274Z,20.75
2023-04-22T15:50:39.935Z,21.00
2023-04-22T15:53:07.320Z,21.21
2023-04-22T15:55:34.550Z,21.35
2023-04-22T15:58:01.708Z,21.47
2023-04-22T16:00:29.024Z,21.54
2023-04-22T16:02:56.535Z,21.55
2023-04-22T16:05:23.926Z,21.47
2023-04-22T16:07:52.790Z,21.33
2023-04-22T16:10:20.577Z,20.90
2023-04-22T16:12:47.925Z,21.17
2023-04-22T16:15:15.226Z,21.38
2023-04-22T16:17:42.541Z,20.94
2023-04-22T16:20:11.122Z,20.85
2023-04-22T16:22:38.379Z,20.54
2023-04-22T16:25:09.243Z,20.28
2023-04-22T16:27:36.482Z,20.26
2023-04-22T16:30:04.685Z,20.22
2023-04-22T16:32:31.869Z,19.92
2023-04-22T16:34:59.093Z,19.94
2023-04-22T16:37:26.745Z,19.88
2023-04-22T16:39:53.846Z,19.93
2023-04-22T16:42:22.501Z,20.00
2023-04-22T16:44:49.725Z,20.07
2023-04-22T16:47:16.862Z,20.22
2023-04-22T16:49:44.136Z,20.26
2023-04-22T16:52:11.489Z,20.30
2023-04-22T16:54:38.660Z,20.34
2023-04-22T16:57:05.781Z,20.30
2023-04-22T16:59:34.525Z,20.29
2023-04-22T17:02:02.299Z,20.25
2023-04-22T17:04:29.656Z,20.23
2023-04-22T17:06:56.908Z,20.20
2023-04-22T17:09:24.209Z,20.18
2023-04-22T17:11:51.464Z,20.17
2023-04-22T17:14:18.649Z,20.13
2023-04-22T17:16:47.163Z,20.08
2023-04-22T17:19:14.365Z,20.01
2023-04-22T17:21:41.553Z,19.97
2023-04-22T17:24:08.725Z,19.95
2023-04-22T17:26:35.925Z,19.94
2023-04-22T17:29:03.137Z,19.95
2023-04-22T17:31:30.399Z,19.92
2023-04-22T17:33:59.488Z,19.94
2023-04-22T17:36:26.626Z,19.93
2023-04-22T17:38:53.784Z,19.95
2023-04-22T17:41:21.926Z,19.97
2023-04-22T17:43:49.029Z,20.89
2023-04-22T17:46:16.415Z,21.30
2023-04-22T17:48:43.850Z,21.66
2023-04-22T17:51:12.891Z,21.95
2023-04-22T17:53:40.047Z,22.11
2023-04-22T17:56:07.345Z,21.63
2023-04-22T17:58:34.685Z,21.41
2023-04-22T18:01:01.912Z,21.20
2023-04-22T18:03:29.552Z,20.99
2023-04-22T18:05:56.904Z,20.87
2023-04-22T18:08:25.443Z,20.75
2023-04-22T18:10:52.786Z,20.66
2023-04-22T18:13:19.949Z,20.54
2023-04-22T18:15:47.113Z,20.49
2023-04-22T18:18:14.409Z,20.43
2023-04-22T18:20:41.771Z,20.38
2023-04-22T18:23:08.985Z,20.40
2023-04-22T18:25:38.103Z,20.38
2023-04-22T18:28:05.283Z,20.42
2023-04-22T18:30:32.890Z,20.36
2023-04-22T18:33:00.339Z,20.06
2023-04-22T18:35:28.066Z,19.78
2023-04-22T18:37:55.167Z,19.89
2023-04-22T18:40:22.425Z,19.94
2023-04-22T18:42:51.100Z,19.99
2023-04-22T18:45:18.399Z,20.11
2023-04-22T18:47:45.577Z,20.14
2023-04-22T18:50:12.833Z,20.18
2023-04-22T18:52:40.041Z,20.17
2023-04-22T18:55:07.675Z,20.14
2023-04-22T18:57:34.845Z,20.14
2023-04-22T19:00:04.174Z,20.13
2023-04-22T19:02:31.324Z,20.10
2023-04-22T19:04:58.680Z,20.12
2023-04-22T19:07:25.984Z,20.09
2023-04-22T19:09:53.280Z,20.07
2023-04-22T19:12:20.558Z,20.09
2023-04-22T19:14:47.760Z,20.08
2023-04-22T19:17:16.481Z,20.07
2023-04-22T19:19:44.056Z,20.09
2023-04-22T19:22:11.641Z,20.06
2023-04-22T19:24:38.788Z,20.01
2023-04-22T19:27:06.222Z,19.99
2023-04-22T19:29:33.270Z,19.98
2023-04-22T19:32:01.004Z,20.00
2023-04-22T19:34:29.604Z,19.96
2023-04-22T19:36:56.760Z,19.92
2023-04-22T19:39:23.847Z,19.95
2023-04-22T19:41:51.322Z,19.95
2023-04-22T19:44:18.501Z,19.97
2023-04-22T19:46:45.780Z,19.95
2023-04-22T19:49:14.121Z,20.03
2023-04-22T19:51:44.673Z,20.08
2023-04-22T19:54:13.285Z,20.15
2023-04-22T19:56:40.634Z,20.93
2023-04-22T19:59:08.244Z,21.21
2023-04-22T20:01:36.317Z,20.81
2023-04-22T20:04:04.370Z,20.70
2023-04-22T20:06:33.319Z,20.64
2023-04-22T20:09:02.950Z,20.51
2023-04-22T20:11:31.503Z,20.46
2023-04-22T20:13:59.329Z,20.42
2023-04-22T20:16:27.114Z,20.41
2023-04-22T20:18:54.584Z,20.29
2023-04-22T20:21:22.340Z,20.29
2023-04-22T20:23:52.223Z,20.27
2023-04-22T20:26:21.152Z,20.23
2023-04-22T20:28:50.548Z,20.18
2023-04-22T20:31:18.678Z,20.15
2023-04-22T20:33:46.534Z,20.07
2023-04-22T20:36:14.825Z,20.05
2023-04-22T20:38:42.707Z,20.06
2023-04-22T20:41:10.267Z,20.11
2023-04-22T20:43:39.068Z,20.16
2023-04-22T20:46:06.147Z,20.15
2023-04-22T20:48:33.408Z,20.14
2023-04-22T20:51:00.546Z,20.12
2023-04-22T20:53:27.668Z,20.09
2023-04-22T20:55:54.782Z,20.09
2023-04-22T20:58:22.589Z,19.81
2023-04-22T21:00:51.428Z,19.98
2023-04-22T21:03:19.940Z,20.00
2023-04-22T21:05:47.327Z,20.06
2023-04-22T21:08:21.005Z,20.11
2023-04-22T21:10:48.945Z,20.09
2023-04-22T21:13:16.870Z,20.00
2023-04-22T21:15:54.627Z,20.08
2023-04-22T21:18:25.066Z,20.17
2023-04-22T21:20:53.248Z,20.15
2023-04-22T21:23:20.928Z,20.17
2023-04-22T21:25:48.317Z,20.17
2023-04-22T21:28:16.342Z,20.15
2023-04-22T21:30:44.245Z,20.20
2023-04-22T21:33:12.820Z,20.21
2023-04-22T21:35:40.514Z,20.17
2023-04-22T21:38:08.372Z,20.18
2023-04-22T21:40:36.224Z,20.21
2023-04-22T21:43:03.830Z,20.19
2023-04-22T21:45:31.451Z,20.22
2023-04-22T21:47:58.644Z,20.20
2023-04-22T21:50:27.820Z,20.17
2023-04-22T21:52:55.191Z,20.16
2023-04-22T21:55:22.504Z,20.14
2023-04-22T21:57:49.626Z,20.10
2023-04-22T22:00:16.921Z,20.08
2023-04-22T22:02:45.673Z,20.08
2023-04-22T22:05:15.017Z,20.11
2023-04-22T22:07:44.070Z,20.06
2023-04-22T22:10:13.962Z,20.03
2023-04-22T22:12:41.659Z,20.05
2023-04-22T22:15:10.181Z,19.97
2023-04-22T22:17:38.499Z,19.97
2023-04-22T22:20:07.280Z,19.95
2023-04-22T22:22:34.511Z,19.90
2023-04-22T22:25:03.216Z,19.91
2023-04-22T22:27:30.732Z,19.86
2023-04-22T22:29:57.859Z,19.93
2023-04-22T22:32:25.148Z,19.95
2023-04-22T22:34:52.225Z,19.85
2023-04-22T22:37:19.418Z,19.76
2023-04-22T22:39:47.005Z,19.88
2023-04-22T22:42:15.641Z,19.87
2023-04-22T22:44:42.995Z,19.86
2023-04-22T22:47:10.640Z,19.86
2023-04-22T22:49:38.261Z,19.95
2023-04-22T22:52:05.649Z,19.93
2023-04-22T22:54:36.117Z,19.93
2023-04-22T22:57:03.452Z,19.85
2023-04-22T22:59:31.968Z,19.85
2023-04-22T23:02:00.024Z,19.83
2023-04-22T23:04:27.643Z,19.68
2023-04-22T23:06:55.503Z,19.72
2023-04-22T23:09:23.243Z,19.59
2023-04-22T23:11:50.727Z,19.44
2023-04-22T23:14:18.600Z,19.43
2023-04-22T23:16:47.784Z,19.47
2023-04-22T23:19:16.965Z,19.45
2023-04-22T23:21:45.684Z,19.43
2023-04-22T23:24:14.547Z,19.27
2023-04-22T23:26:42.790Z,19.20
2023-04-22T23:29:10.583Z,19.24
2023-04-22T23:31:41.784Z,19.04
2023-04-22T23:34:11.207Z,19.06
2023-04-22T23:36:39.925Z,19.08
2023-04-22T23:39:07.245Z,19.07
2023-04-22T23:41:34.403Z,19.04
2023-04-22T23:44:01.500Z,18.65
2023-04-22T23:46:28.729Z,18.83
2023-04-22T23:48:56.075Z,18.87
2023-04-22T23:51:24.730Z,18.68
2023-04-22T23:53:51.814Z,18.68
2023-04-22T23:56:19.603Z,18.64
2023-04-22T23:58:47.401Z,18.73
